QFA7 YSSY-KDFW
Flight info
| Callsign | QFA7 |
|---|---|
| Flight time | N/A |
| Altitude | 33000 |
| Route | RIC6/34L NOBAR A579 JORDY 3023S15839E 2936S16019E 2829S16300E/N0490F350 2815S16333E 2600S16845E 2520S17020E 2300S17622E 2157S17841E 2002S17750W 1952S17735W 1803S17452W 1512S17116W 1102S16703W/N0490F370 0632S16314W 0500S16201W 0339S16058W 0100S15859W 0245N15611W 0535N15350W 0821N15128W 1127N14832W/N0483F390 1404N14541W 1735N14110W 1941N13803W 2238N13253W 2448N12813W 2600N12430W 27N120W 2730N11800W/N0471F410 2740N11712W GRN HMO ILAMA WASIX GEEKY BOOVE SOCKK4 |
| Aircraft | A388/J-SADE2E3FGHIJ3J4J5M1RWXY/LB1D1 |
Departure
| Time | 2026-05-04 01:53 |
|---|---|
| Airport | Sydney Kingsford Smith International Airport (YSSY) |
Arrival
| Time | N/A |
|---|---|
| Airport | Dallas Fort Worth International Airport (KDFW) |
| Time | Latitude | Longitude | Altitude | Speed | Heading |
|---|---|---|---|---|---|
| 2026-05-04 01:23 | -33.93399 | 151.16788 | 35 ft | 0 kts | 258° |
| 2026-05-04 01:23 | -33.93400 | 151.16787 | 35 ft | 0 kts | 258° |
| 2026-05-04 01:41 | -33.93395 | 151.16812 | 33 ft | 4 kts | 258° |
| 2026-05-04 01:42 | -33.93391 | 151.16837 | 31 ft | 4 kts | 262° |
| 2026-05-04 01:42 | -33.93390 | 151.16868 | 32 ft | 4 kts | 281° |
| 2026-05-04 01:42 | -33.93398 | 151.16890 | 32 ft | 4 kts | 316° |
| 2026-05-04 01:42 | -33.93413 | 151.16898 | 31 ft | 4 kts | 347° |
| 2026-05-04 01:43 | -33.93440 | 151.16905 | 34 ft | 4 kts | 347° |
| 2026-05-04 01:43 | -33.93454 | 151.16909 | 34 ft | 1 kts | 347° |
| 2026-05-04 01:45 | -33.93368 | 151.16888 | 34 ft | 12 kts | 2° |
| 2026-05-04 01:46 | -33.93301 | 151.16924 | 35 ft | 9 kts | 60° |
| 2026-05-04 01:46 | -33.93299 | 151.16998 | 35 ft | 10 kts | 108° |
| 2026-05-04 01:46 | -33.93356 | 151.17065 | 35 ft | 14 kts | 159° |
| 2026-05-04 01:46 | -33.93465 | 151.17095 | 34 ft | 18 kts | 168° |
| 2026-05-04 01:47 | -33.93601 | 151.17128 | 34 ft | 22 kts | 168° |
| 2026-05-04 01:47 | -33.93757 | 151.17169 | 34 ft | 23 kts | 167° |
| 2026-05-04 01:47 | -33.93911 | 151.17209 | 34 ft | 23 kts | 168° |
| 2026-05-04 01:47 | -33.94066 | 151.17249 | 34 ft | 23 kts | 168° |
| 2026-05-04 01:48 | -33.94224 | 151.17290 | 34 ft | 23 kts | 168° |
| 2026-05-04 01:48 | -33.94378 | 151.17330 | 35 ft | 22 kts | 168° |
| 2026-05-04 01:48 | -33.94533 | 151.17370 | 35 ft | 24 kts | 168° |
| 2026-05-04 01:48 | -33.94704 | 151.17413 | 35 ft | 27 kts | 168° |
| 2026-05-04 01:49 | -33.94893 | 151.17464 | 34 ft | 29 kts | 167° |
| 2026-05-04 01:49 | -33.95096 | 151.17517 | 34 ft | 30 kts | 167° |
| 2026-05-04 01:49 | -33.95298 | 151.17569 | 34 ft | 29 kts | 168° |
| 2026-05-04 01:49 | -33.95489 | 151.17618 | 35 ft | 27 kts | 168° |
| 2026-05-04 01:50 | -33.95670 | 151.17665 | 35 ft | 27 kts | 168° |
| 2026-05-04 01:50 | -33.95850 | 151.17712 | 35 ft | 26 kts | 168° |
| 2026-05-04 01:50 | -33.96026 | 151.17758 | 35 ft | 26 kts | 168° |
| 2026-05-04 01:50 | -33.96198 | 151.17802 | 35 ft | 23 kts | 168° |
| 2026-05-04 01:51 | -33.96335 | 151.17838 | 35 ft | 15 kts | 168° |
| 2026-05-04 01:51 | -33.96427 | 151.17881 | 35 ft | 11 kts | 117° |
| 2026-05-04 01:51 | -33.96427 | 151.17953 | 35 ft | 10 kts | 85° |
| 2026-05-04 01:51 | -33.96411 | 151.18039 | 35 ft | 10 kts | 53° |
| 2026-05-04 01:52 | -33.96377 | 151.18051 | 35 ft | 5 kts | 347° |
| 2026-05-04 01:52 | -33.96280 | 151.18026 | 34 ft | 39 kts | 349° |
| 2026-05-04 01:52 | -33.95773 | 151.17893 | 33 ft | 107 kts | 349° |
| 2026-05-04 01:52 | -33.94868 | 151.17663 | 34 ft | 155 kts | 348° |
| 2026-05-04 01:53 | -33.93725 | 151.17358 | 166 ft | 174 kts | 346° |
| 2026-05-04 01:53 | -33.92537 | 151.17037 | 573 ft | 179 kts | 345° |
| 2026-05-04 01:53 | -33.91421 | 151.16365 | 1043 ft | 180 kts | 319° |
| 2026-05-04 01:53 | -33.90585 | 151.15308 | 1598 ft | 173 kts | 316° |
| 2026-05-04 01:54 | -33.89694 | 151.14240 | 1766 ft | 187 kts | 316° |
| 2026-05-04 01:54 | -33.88752 | 151.13126 | 1883 ft | 198 kts | 316° |
| 2026-05-04 01:54 | -33.87751 | 151.11929 | 1930 ft | 208 kts | 315° |
| 2026-05-04 01:54 | -33.86679 | 151.10624 | 2082 ft | 230 kts | 315° |
| 2026-05-04 01:55 | -33.85433 | 151.09309 | 2251 ft | 247 kts | 332° |
| 2026-05-04 01:55 | -33.83777 | 151.08807 | 2915 ft | 248 kts | 356° |
| 2026-05-04 01:55 | -33.82089 | 151.09280 | 3578 ft | 255 kts | 24° |
| 2026-05-04 01:55 | -33.80747 | 151.10726 | 4241 ft | 268 kts | 51° |
| 2026-05-04 01:56 | -33.80068 | 151.12825 | 4843 ft | 282 kts | 78° |
| 2026-05-04 01:56 | -33.80054 | 151.15191 | 5509 ft | 286 kts | 90° |
| 2026-05-04 01:56 | -33.80222 | 151.17579 | 6177 ft | 286 kts | 90° |
| 2026-05-04 01:56 | -33.80332 | 151.19963 | 6827 ft | 286 kts | 87° |
| 2026-05-04 01:57 | -33.80355 | 151.22363 | 7385 ft | 288 kts | 85° |
| 2026-05-04 01:57 | -33.80316 | 151.24784 | 7942 ft | 291 kts | 83° |
| 2026-05-04 01:57 | -33.80245 | 151.27219 | 8516 ft | 293 kts | 83° |
| 2026-05-04 01:57 | -33.80162 | 151.29684 | 9092 ft | 297 kts | 83° |
| 2026-05-04 01:58 | -33.80077 | 151.32143 | 9678 ft | 299 kts | 84° |
| 2026-05-04 01:58 | -33.79992 | 151.34657 | 10168 ft | 305 kts | 84° |
| 2026-05-04 01:58 | -33.79901 | 151.37278 | 10321 ft | 321 kts | 84° |
| 2026-05-04 01:58 | -33.79806 | 151.40026 | 10468 ft | 337 kts | 84° |
| 2026-05-04 01:59 | -33.79708 | 151.42899 | 10637 ft | 351 kts | 84° |
| 2026-05-04 01:59 | -33.79610 | 151.45849 | 11071 ft | 355 kts | 84° |
| 2026-05-04 01:59 | -33.79512 | 151.48821 | 11579 ft | 357 kts | 84° |
| 2026-05-04 01:59 | -33.79412 | 151.51813 | 12037 ft | 360 kts | 84° |
| 2026-05-04 02:00 | -33.79308 | 151.54834 | 12531 ft | 363 kts | 84° |
| 2026-05-04 02:00 | -33.79203 | 151.57877 | 13014 ft | 366 kts | 84° |
| 2026-05-04 02:00 | -33.79096 | 151.60937 | 13480 ft | 369 kts | 84° |
| 2026-05-04 02:00 | -33.78988 | 151.63999 | 13959 ft | 371 kts | 84° |
| 2026-05-04 02:01 | -33.78878 | 151.67095 | 14444 ft | 372 kts | 84° |
| 2026-05-04 02:01 | -33.78765 | 151.70229 | 14796 ft | 377 kts | 84° |
| 2026-05-04 02:01 | -33.78422 | 151.73330 | 15291 ft | 374 kts | 73° |
| 2026-05-04 02:01 | -33.77589 | 151.76285 | 15692 ft | 373 kts | 62° |
| 2026-05-04 02:02 | -33.76358 | 151.79025 | 16111 ft | 374 kts | 57° |
| 2026-05-04 02:02 | -33.75091 | 151.81759 | 16534 ft | 376 kts | 58° |
| 2026-05-04 02:02 | -33.73830 | 151.84530 | 16952 ft | 379 kts | 58° |
| 2026-05-04 02:02 | -33.72564 | 151.87323 | 17367 ft | 381 kts | 58° |
| 2026-05-04 02:03 | -33.71289 | 151.90132 | 17758 ft | 384 kts | 58° |
| 2026-05-04 02:03 | -33.70004 | 151.92954 | 18183 ft | 386 kts | 57° |
| 2026-05-04 02:03 | -33.68705 | 151.95802 | 18465 ft | 391 kts | 57° |
| 2026-05-04 02:03 | -33.67411 | 151.98634 | 18789 ft | 394 kts | 57° |
| 2026-05-04 02:04 | -33.66091 | 152.01523 | 19138 ft | 396 kts | 57° |
| 2026-05-04 02:04 | -33.64759 | 152.04430 | 19450 ft | 399 kts | 57° |
| 2026-05-04 02:04 | -33.63418 | 152.07354 | 19790 ft | 401 kts | 57° |
| 2026-05-04 02:04 | -33.62069 | 152.10295 | 20115 ft | 403 kts | 57° |
| 2026-05-04 02:05 | -33.60714 | 152.13248 | 20428 ft | 406 kts | 57° |
| 2026-05-04 02:05 | -33.59349 | 152.16224 | 20744 ft | 408 kts | 57° |
| 2026-05-04 02:05 | -33.57974 | 152.19219 | 21047 ft | 411 kts | 57° |
| 2026-05-04 02:05 | -33.56610 | 152.22187 | 21357 ft | 414 kts | 57° |
| 2026-05-04 02:06 | -33.55216 | 152.25217 | 21663 ft | 416 kts | 57° |
| 2026-05-04 02:06 | -33.53815 | 152.28259 | 21960 ft | 419 kts | 57° |
| 2026-05-04 02:06 | -33.52402 | 152.31323 | 22267 ft | 421 kts | 57° |
| 2026-05-04 02:06 | -33.50981 | 152.34402 | 22570 ft | 424 kts | 56° |
| 2026-05-04 02:07 | -33.49550 | 152.37499 | 22876 ft | 426 kts | 56° |
| 2026-05-04 02:07 | -33.48110 | 152.40613 | 23110 ft | 430 kts | 56° |
| 2026-05-04 02:07 | -33.46654 | 152.43759 | 23359 ft | 433 kts | 56° |
| 2026-05-04 02:07 | -33.45189 | 152.46923 | 23656 ft | 435 kts | 56° |
| 2026-05-04 02:08 | -33.43736 | 152.50059 | 23906 ft | 438 kts | 56° |
| 2026-05-04 02:08 | -33.42258 | 152.53246 | 24178 ft | 439 kts | 56° |
| 2026-05-04 02:08 | -33.40772 | 152.56445 | 24448 ft | 441 kts | 56° |
| 2026-05-04 02:08 | -33.39277 | 152.59662 | 24692 ft | 443 kts | 56° |
| 2026-05-04 02:09 | -33.37777 | 152.62887 | 24946 ft | 445 kts | 55° |
| 2026-05-04 02:09 | -33.36267 | 152.66129 | 25209 ft | 447 kts | 55° |
| 2026-05-04 02:09 | -33.34753 | 152.69379 | 25476 ft | 449 kts | 55° |
| 2026-05-04 02:09 | -33.33224 | 152.72656 | 25733 ft | 451 kts | 54° |
| 2026-05-04 02:10 | -33.31714 | 152.75890 | 26043 ft | 452 kts | 55° |
| 2026-05-04 02:10 | -33.30180 | 152.79175 | 26333 ft | 454 kts | 54° |
| 2026-05-04 02:10 | -33.28632 | 152.82483 | 26629 ft | 456 kts | 54° |
| 2026-05-04 02:10 | -33.27079 | 152.85802 | 26897 ft | 459 kts | 54° |
| 2026-05-04 02:11 | -33.25515 | 152.89140 | 27190 ft | 462 kts | 54° |
| 2026-05-04 02:11 | -33.23944 | 152.92491 | 27500 ft | 464 kts | 54° |
| 2026-05-04 02:11 | -33.22363 | 152.95860 | 27815 ft | 466 kts | 53° |
| 2026-05-04 02:11 | -33.20775 | 152.99241 | 28130 ft | 468 kts | 53° |
| 2026-05-04 02:12 | -33.19198 | 153.02594 | 28432 ft | 470 kts | 53° |
| 2026-05-04 02:12 | -33.17591 | 153.06006 | 28739 ft | 473 kts | 53° |
| 2026-05-04 02:12 | -33.15980 | 153.09423 | 29140 ft | 472 kts | 54° |
| 2026-05-04 02:12 | -33.14372 | 153.12839 | 29524 ft | 473 kts | 53° |
| 2026-05-04 02:13 | -33.12753 | 153.16268 | 29866 ft | 474 kts | 53° |
| 2026-05-04 02:13 | -33.11131 | 153.19700 | 30194 ft | 477 kts | 53° |
| 2026-05-04 02:13 | -33.09495 | 153.23156 | 30414 ft | 480 kts | 53° |
| 2026-05-04 02:13 | -33.07845 | 153.26638 | 30622 ft | 484 kts | 53° |
| 2026-05-04 02:14 | -33.06185 | 153.30140 | 30834 ft | 488 kts | 53° |
| 2026-05-04 02:14 | -33.04509 | 153.33672 | 31051 ft | 491 kts | 53° |
| 2026-05-04 02:14 | -33.02841 | 153.37184 | 31251 ft | 495 kts | 53° |
| 2026-05-04 02:14 | -33.01141 | 153.40761 | 31478 ft | 498 kts | 53° |
| 2026-05-04 02:15 | -32.99425 | 153.44369 | 31684 ft | 502 kts | 52° |
| 2026-05-04 02:15 | -32.97692 | 153.48004 | 31808 ft | 508 kts | 52° |
| 2026-05-04 02:15 | -32.95951 | 153.51658 | 32069 ft | 510 kts | 52° |
| 2026-05-04 02:15 | -32.94191 | 153.55347 | 32253 ft | 513 kts | 52° |
| 2026-05-04 02:16 | -32.92419 | 153.59057 | 32467 ft | 517 kts | 52° |
| 2026-05-04 02:16 | -32.90635 | 153.62788 | 32673 ft | 520 kts | 52° |
| 2026-05-04 02:16 | -32.88864 | 153.66488 | 32875 ft | 523 kts | 52° |
| 2026-05-04 02:16 | -32.87058 | 153.70257 | 33081 ft | 526 kts | 52° |
| 2026-05-04 02:17 | -32.83378 | 153.77916 | 33129 ft | 541 kts | 52° |
| 2026-05-04 02:17 | -32.79598 | 153.85773 | 33122 ft | 552 kts | 52° |
| 2026-05-04 02:18 | -32.75775 | 153.93723 | 33111 ft | 552 kts | 52° |
| 2026-05-04 02:18 | -32.71975 | 154.01596 | 33114 ft | 553 kts | 52° |
| 2026-05-04 02:19 | -32.68145 | 154.09507 | 33106 ft | 555 kts | 52° |
| 2026-05-04 02:19 | -32.64290 | 154.17454 | 33130 ft | 555 kts | 52° |
| 2026-05-04 02:20 | -32.60441 | 154.25376 | 33124 ft | 554 kts | 52° |
| 2026-05-04 02:20 | -32.56588 | 154.33284 | 33112 ft | 553 kts | 52° |
| 2026-05-04 02:21 | -32.52761 | 154.41123 | 33120 ft | 553 kts | 52° |
| 2026-05-04 02:21 | -32.48903 | 154.49007 | 33097 ft | 554 kts | 53° |
| 2026-05-04 02:22 | -32.45032 | 154.56902 | 33113 ft | 555 kts | 53° |
| 2026-05-04 02:22 | -32.41150 | 154.64807 | 33125 ft | 556 kts | 53° |
| 2026-05-04 02:23 | -32.37295 | 154.72675 | 33153 ft | 558 kts | 53° |
| 2026-05-04 02:23 | -32.33449 | 154.80662 | 33133 ft | 559 kts | 54° |
| 2026-05-04 02:24 | -32.29605 | 154.88649 | 33137 ft | 560 kts | 54° |
| 2026-05-04 02:24 | -32.25743 | 154.96644 | 33144 ft | 560 kts | 53° |
| 2026-05-04 02:25 | -32.21872 | 155.04629 | 33151 ft | 561 kts | 53° |
| 2026-05-04 02:25 | -32.18012 | 155.12570 | 33159 ft | 561 kts | 53° |
| 2026-05-04 02:26 | -32.14126 | 155.20547 | 33139 ft | 561 kts | 53° |
| 2026-05-04 02:26 | -32.10231 | 155.28525 | 33141 ft | 561 kts | 53° |
| 2026-05-04 02:27 | -32.06330 | 155.36500 | 33150 ft | 562 kts | 53° |
| 2026-05-04 02:27 | -32.02425 | 155.44465 | 33152 ft | 562 kts | 53° |
| 2026-05-04 02:28 | -31.98533 | 155.52389 | 33145 ft | 561 kts | 53° |
| 2026-05-04 02:28 | -31.94617 | 155.60343 | 33145 ft | 561 kts | 53° |
| 2026-05-04 02:29 | -31.90701 | 155.68280 | 33144 ft | 562 kts | 53° |
| 2026-05-04 02:29 | -31.86768 | 155.76235 | 33149 ft | 562 kts | 53° |
| 2026-05-04 02:30 | -31.82859 | 155.84125 | 33149 ft | 562 kts | 53° |
| 2026-05-04 02:30 | -31.78922 | 155.92055 | 33153 ft | 562 kts | 53° |
| 2026-05-04 02:31 | -31.74974 | 155.99990 | 33156 ft | 562 kts | 54° |
| 2026-05-04 02:31 | -31.71025 | 156.07911 | 33155 ft | 562 kts | 54° |
| 2026-05-04 02:32 | -31.67098 | 156.15772 | 33149 ft | 562 kts | 54° |
| 2026-05-04 02:32 | -31.63137 | 156.23683 | 33130 ft | 562 kts | 54° |
| 2026-05-04 02:33 | -31.59178 | 156.31574 | 33148 ft | 561 kts | 54° |
| 2026-05-04 02:33 | -31.55211 | 156.39465 | 33147 ft | 562 kts | 54° |
| 2026-05-04 02:34 | -31.51241 | 156.47347 | 33150 ft | 562 kts | 54° |
| 2026-05-04 02:34 | -31.47291 | 156.55171 | 33153 ft | 562 kts | 54° |
| 2026-05-04 02:35 | -31.43308 | 156.63044 | 33146 ft | 561 kts | 54° |
| 2026-05-04 02:35 | -31.39321 | 156.70910 | 33147 ft | 562 kts | 54° |
| 2026-05-04 02:36 | -31.35331 | 156.78765 | 33154 ft | 562 kts | 54° |
| 2026-05-04 02:36 | -31.31355 | 156.86577 | 33155 ft | 562 kts | 54° |
| 2026-05-04 02:37 | -31.27349 | 156.94430 | 33151 ft | 563 kts | 54° |
| 2026-05-04 02:37 | -31.23337 | 157.02282 | 33155 ft | 563 kts | 54° |
| 2026-05-04 02:38 | -31.19316 | 157.10133 | 33153 ft | 563 kts | 54° |
| 2026-05-04 02:38 | -31.15292 | 157.17975 | 33158 ft | 563 kts | 54° |
| 2026-05-04 02:39 | -31.11286 | 157.25765 | 33154 ft | 563 kts | 54° |
| 2026-05-04 02:39 | -31.07252 | 157.33596 | 33142 ft | 563 kts | 54° |
| 2026-05-04 02:40 | -31.03212 | 157.41422 | 33146 ft | 563 kts | 54° |
| 2026-05-04 02:40 | -30.99165 | 157.49245 | 33146 ft | 563 kts | 54° |
| 2026-05-04 02:41 | -30.95139 | 157.57011 | 33155 ft | 564 kts | 54° |
| 2026-05-04 02:41 | -30.91085 | 157.64816 | 33157 ft | 564 kts | 54° |
| 2026-05-04 02:42 | -30.87020 | 157.72629 | 33147 ft | 563 kts | 54° |
| 2026-05-04 02:42 | -30.82954 | 157.80425 | 33143 ft | 564 kts | 54° |
| 2026-05-04 02:43 | -30.78878 | 157.88225 | 33148 ft | 564 kts | 54° |
| 2026-05-04 02:43 | -30.74822 | 157.95973 | 33150 ft | 565 kts | 54° |
| 2026-05-04 02:44 | -30.70731 | 158.03772 | 33157 ft | 565 kts | 54° |
| 2026-05-04 02:44 | -30.66633 | 158.11569 | 33127 ft | 565 kts | 54° |
| 2026-05-04 02:45 | -30.62530 | 158.19358 | 33132 ft | 566 kts | 54° |
| 2026-05-04 02:45 | -30.58445 | 158.27099 | 33129 ft | 566 kts | 54° |
| 2026-05-04 02:46 | -30.54331 | 158.34879 | 33136 ft | 566 kts | 54° |
| 2026-05-04 02:46 | -30.50207 | 158.42663 | 33144 ft | 566 kts | 54° |
| 2026-05-04 02:47 | -30.46078 | 158.50443 | 33137 ft | 566 kts | 54° |
| 2026-05-04 02:47 | -30.41946 | 158.58218 | 33133 ft | 567 kts | 54° |
| 2026-05-04 02:48 | -30.37836 | 158.65943 | 33137 ft | 567 kts | 54° |
| 2026-05-04 02:48 | -30.34051 | 158.73992 | 33136 ft | 570 kts | 59° |
| 2026-05-04 02:49 | -30.30397 | 158.82141 | 33140 ft | 570 kts | 58° |
| 2026-05-04 02:49 | -30.27319 | 158.88857 | 33132 ft | 570 kts | 58° |
| 2026-05-04 02:50 | -30.22958 | 158.98274 | 33133 ft | 571 kts | 58° |
| 2026-05-04 02:50 | -30.19203 | 159.06356 | 33136 ft | 571 kts | 58° |
| 2026-05-04 02:51 | -30.15445 | 159.14430 | 33136 ft | 571 kts | 58° |
| 2026-05-04 02:51 | -30.11680 | 159.22501 | 33132 ft | 571 kts | 58° |
| 2026-05-04 02:52 | -30.07932 | 159.30521 | 33125 ft | 571 kts | 59° |
| 2026-05-04 02:52 | -30.04769 | 159.37276 | 33127 ft | 571 kts | 58° |
| 2026-05-04 02:53 | -30.01016 | 159.45277 | 33129 ft | 571 kts | 58° |
| 2026-05-04 02:53 | -29.97229 | 159.53330 | 33129 ft | 571 kts | 58° |
| 2026-05-04 02:54 | -29.93434 | 159.61388 | 33123 ft | 571 kts | 59° |
| 2026-05-04 02:54 | -29.89636 | 159.69432 | 33112 ft | 571 kts | 59° |
| 2026-05-04 02:55 | -29.83964 | 159.81419 | 33124 ft | 571 kts | 59° |
| 2026-05-04 02:56 | -29.80154 | 159.89448 | 33107 ft | 571 kts | 59° |
| 2026-05-04 02:56 | -29.76343 | 159.97465 | 33112 ft | 571 kts | 59° |
| 2026-05-04 02:57 | -29.72554 | 160.05419 | 33115 ft | 571 kts | 59° |
| 2026-05-04 02:57 | -29.68730 | 160.13429 | 33124 ft | 570 kts | 59° |
| 2026-05-04 02:58 | -29.64908 | 160.21420 | 33117 ft | 570 kts | 59° |
| 2026-05-04 02:58 | -29.61081 | 160.29406 | 33107 ft | 571 kts | 59° |
| 2026-05-04 02:59 | -29.57609 | 160.37541 | 33102 ft | 572 kts | 64° |
| 2026-05-04 02:59 | -29.54285 | 160.45838 | 33106 ft | 572 kts | 64° |
| 2026-05-04 03:00 | -29.50946 | 160.54127 | 33118 ft | 572 kts | 64° |
| 2026-05-04 03:00 | -29.47594 | 160.62413 | 33114 ft | 572 kts | 64° |
| 2026-05-04 03:01 | -29.44235 | 160.70697 | 33117 ft | 573 kts | 64° |
| 2026-05-04 03:01 | -29.40893 | 160.78923 | 33117 ft | 573 kts | 64° |
| 2026-05-04 03:02 | -29.37522 | 160.87199 | 33118 ft | 573 kts | 64° |
| 2026-05-04 03:02 | -29.34146 | 160.95472 | 33112 ft | 573 kts | 64° |
| 2026-05-04 03:03 | -29.30758 | 161.03754 | 33111 ft | 574 kts | 64° |
| 2026-05-04 03:03 | -29.27391 | 161.11969 | 33114 ft | 574 kts | 64° |
| 2026-05-04 03:04 | -29.23992 | 161.20242 | 33113 ft | 574 kts | 64° |
| 2026-05-04 03:04 | -29.20586 | 161.28517 | 33109 ft | 575 kts | 64° |
| 2026-05-04 03:05 | -29.17171 | 161.36795 | 33105 ft | 575 kts | 64° |
| 2026-05-04 03:05 | -29.13748 | 161.45074 | 33110 ft | 576 kts | 64° |
| 2026-05-04 03:06 | -29.10345 | 161.53286 | 33110 ft | 576 kts | 64° |
| 2026-05-04 03:06 | -29.06913 | 161.61551 | 33102 ft | 575 kts | 64° |
| 2026-05-04 03:07 | -29.03491 | 161.69776 | 33105 ft | 575 kts | 64° |
| 2026-05-04 03:07 | -29.00060 | 161.78001 | 33097 ft | 575 kts | 64° |
| 2026-05-04 03:08 | -28.96615 | 161.86246 | 33100 ft | 575 kts | 64° |
| 2026-05-04 03:08 | -28.93167 | 161.94480 | 33101 ft | 575 kts | 64° |
| 2026-05-04 03:09 | -28.89713 | 162.02711 | 33099 ft | 575 kts | 64° |
| 2026-05-04 03:09 | -28.86256 | 162.10930 | 33106 ft | 574 kts | 64° |
| 2026-05-04 03:10 | -28.82822 | 162.19080 | 33101 ft | 573 kts | 64° |
| 2026-05-04 03:10 | -28.79362 | 162.27273 | 33106 ft | 573 kts | 64° |
| 2026-05-04 03:11 | -28.75898 | 162.35457 | 33086 ft | 573 kts | 64° |
| 2026-05-04 03:11 | -28.72453 | 162.43581 | 33088 ft | 573 kts | 64° |
| 2026-05-04 03:12 | -28.68978 | 162.51759 | 33090 ft | 573 kts | 64° |
| 2026-05-04 03:12 | -28.65500 | 162.59926 | 33091 ft | 573 kts | 64° |
| 2026-05-04 03:13 | -28.62016 | 162.68089 | 33094 ft | 573 kts | 64° |
| 2026-05-04 03:13 | -28.58530 | 162.76243 | 33085 ft | 573 kts | 64° |
| 2026-05-04 03:14 | -28.55061 | 162.84339 | 33088 ft | 573 kts | 64° |
| 2026-05-04 03:14 | -28.51562 | 162.92489 | 33086 ft | 573 kts | 64° |
| 2026-05-04 03:15 | -28.48060 | 163.00636 | 33084 ft | 574 kts | 64° |
| 2026-05-04 03:15 | -28.44601 | 163.08805 | 33102 ft | 574 kts | 65° |
| 2026-05-04 03:16 | -28.41179 | 163.16928 | 33091 ft | 574 kts | 65° |
| 2026-05-04 03:16 | -28.37722 | 163.25099 | 33143 ft | 576 kts | 65° |
| 2026-05-04 03:16 | -28.35987 | 163.29190 | 33547 ft | 575 kts | 65° |
| 2026-05-04 03:17 | -28.34246 | 163.33289 | 33854 ft | 577 kts | 65° |
| 2026-05-04 03:17 | -28.32498 | 163.37402 | 34139 ft | 579 kts | 65° |
| 2026-05-04 03:17 | -28.30774 | 163.41454 | 34456 ft | 579 kts | 65° |
| 2026-05-04 03:17 | -28.29020 | 163.45571 | 34784 ft | 578 kts | 65° |
| 2026-05-04 03:18 | -28.27267 | 163.49681 | 35020 ft | 580 kts | 65° |
| 2026-05-04 03:18 | -28.23779 | 163.57882 | 35068 ft | 575 kts | 66° |
| 2026-05-04 03:19 | -28.20442 | 163.66108 | 35096 ft | 574 kts | 66° |
| 2026-05-04 03:19 | -28.17102 | 163.74376 | 35084 ft | 577 kts | 66° |
| 2026-05-04 03:20 | -28.13767 | 163.82576 | 35080 ft | 576 kts | 66° |
| 2026-05-04 03:20 | -28.10397 | 163.90828 | 35087 ft | 578 kts | 66° |
| 2026-05-04 03:21 | -28.07013 | 163.99090 | 35101 ft | 579 kts | 66° |
| 2026-05-04 03:21 | -28.03613 | 164.07369 | 35089 ft | 581 kts | 66° |
| 2026-05-04 03:22 | -28.00228 | 164.15595 | 35114 ft | 580 kts | 66° |
| 2026-05-04 03:22 | -27.96817 | 164.23868 | 35111 ft | 580 kts | 66° |
| 2026-05-04 03:23 | -27.93407 | 164.32121 | 35101 ft | 579 kts | 66° |
| 2026-05-04 03:23 | -27.89996 | 164.40357 | 35060 ft | 579 kts | 67° |
| 2026-05-04 03:24 | -27.86579 | 164.48594 | 35059 ft | 579 kts | 66° |
| 2026-05-04 03:24 | -27.83181 | 164.56769 | 35071 ft | 579 kts | 66° |
| 2026-05-04 03:25 | -27.79753 | 164.64997 | 35064 ft | 579 kts | 66° |
| 2026-05-04 03:25 | -27.76319 | 164.73221 | 35090 ft | 579 kts | 67° |
| 2026-05-04 03:26 | -27.72879 | 164.81444 | 35080 ft | 580 kts | 67° |
| 2026-05-04 03:26 | -27.69454 | 164.89616 | 35076 ft | 580 kts | 67° |
| 2026-05-04 03:27 | -27.66000 | 164.97838 | 35081 ft | 580 kts | 67° |
| 2026-05-04 03:27 | -27.62537 | 165.06066 | 35080 ft | 580 kts | 67° |
| 2026-05-04 03:28 | -27.59071 | 165.14283 | 35064 ft | 581 kts | 67° |
| 2026-05-04 03:28 | -27.55615 | 165.22462 | 35083 ft | 581 kts | 67° |
| 2026-05-04 03:29 | -27.52137 | 165.30678 | 35076 ft | 581 kts | 67° |
| 2026-05-04 03:29 | -27.48652 | 165.38890 | 35075 ft | 581 kts | 67° |
| 2026-05-04 03:30 | -27.45167 | 165.47087 | 35070 ft | 581 kts | 67° |
| 2026-05-04 03:30 | -27.41701 | 165.55224 | 35069 ft | 580 kts | 67° |
| 2026-05-04 03:31 | -27.38207 | 165.63408 | 35066 ft | 580 kts | 67° |
| 2026-05-04 03:31 | -27.34708 | 165.71589 | 35067 ft | 580 kts | 67° |
| 2026-05-04 03:32 | -27.31211 | 165.79749 | 35089 ft | 579 kts | 67° |
| 2026-05-04 03:32 | -27.27730 | 165.87856 | 35063 ft | 579 kts | 67° |
| 2026-05-04 03:33 | -27.24225 | 165.96003 | 35061 ft | 579 kts | 67° |
| 2026-05-04 03:33 | -27.20711 | 166.04153 | 35062 ft | 579 kts | 67° |
| 2026-05-04 03:34 | -27.17197 | 166.12288 | 35066 ft | 579 kts | 67° |
| 2026-05-04 03:34 | -27.13675 | 166.20425 | 35058 ft | 580 kts | 67° |
| 2026-05-04 03:35 | -27.10169 | 166.28511 | 35072 ft | 580 kts | 67° |
| 2026-05-04 03:35 | -27.06634 | 166.36647 | 35074 ft | 580 kts | 67° |
| 2026-05-04 03:36 | -27.03094 | 166.44777 | 35070 ft | 580 kts | 67° |
| 2026-05-04 03:36 | -26.99569 | 166.52859 | 35078 ft | 580 kts | 67° |
| 2026-05-04 03:37 | -26.96020 | 166.60979 | 35070 ft | 580 kts | 67° |
| 2026-05-04 03:37 | -26.92468 | 166.69092 | 35070 ft | 580 kts | 67° |
| 2026-05-04 03:38 | -26.88912 | 166.77196 | 35064 ft | 579 kts | 67° |
| 2026-05-04 03:38 | -26.85353 | 166.85293 | 35040 ft | 579 kts | 67° |
| 2026-05-04 03:39 | -26.81818 | 166.93316 | 35061 ft | 578 kts | 67° |
| 2026-05-04 03:39 | -26.78263 | 167.01374 | 35075 ft | 577 kts | 67° |
| 2026-05-04 03:40 | -26.74707 | 167.09417 | 35054 ft | 576 kts | 67° |
| 2026-05-04 03:40 | -26.71149 | 167.17450 | 35051 ft | 576 kts | 67° |
| 2026-05-04 03:41 | -26.67613 | 167.25418 | 35066 ft | 576 kts | 67° |
| 2026-05-04 03:41 | -26.64052 | 167.33426 | 35064 ft | 575 kts | 67° |
| 2026-05-04 03:42 | -26.60489 | 167.41425 | 35039 ft | 574 kts | 67° |
| 2026-05-04 03:42 | -26.56950 | 167.49353 | 35043 ft | 574 kts | 67° |
| 2026-05-04 03:43 | -26.53387 | 167.57322 | 35044 ft | 574 kts | 67° |
| 2026-05-04 03:43 | -26.49821 | 167.65283 | 35055 ft | 573 kts | 68° |
| 2026-05-04 03:44 | -26.46249 | 167.73242 | 35053 ft | 573 kts | 68° |
| 2026-05-04 03:44 | -26.42698 | 167.81141 | 35046 ft | 573 kts | 67° |
| 2026-05-04 03:45 | -26.39119 | 167.89086 | 35046 ft | 573 kts | 67° |
| 2026-05-04 03:45 | -26.35538 | 167.97019 | 35046 ft | 573 kts | 68° |
| 2026-05-04 03:46 | -26.31953 | 168.04949 | 35041 ft | 573 kts | 68° |
| 2026-05-04 03:46 | -26.28364 | 168.12874 | 35043 ft | 572 kts | 68° |
| 2026-05-04 03:47 | -26.24802 | 168.20723 | 35041 ft | 572 kts | 68° |
| 2026-05-04 03:47 | -26.21204 | 168.28637 | 35041 ft | 572 kts | 68° |
| 2026-05-04 03:48 | -26.17606 | 168.36536 | 35052 ft | 572 kts | 68° |
| 2026-05-04 03:48 | -26.14006 | 168.44428 | 35041 ft | 571 kts | 68° |
| 2026-05-04 03:49 | -26.10403 | 168.52309 | 35020 ft | 571 kts | 68° |
| 2026-05-04 03:49 | -26.06829 | 168.60120 | 35037 ft | 570 kts | 68° |
| 2026-05-04 03:50 | -26.03230 | 168.67976 | 35029 ft | 570 kts | 68° |
| 2026-05-04 03:50 | -25.99639 | 168.75804 | 35042 ft | 569 kts | 68° |
| 2026-05-04 03:51 | -25.96308 | 168.83709 | 35037 ft | 566 kts | 71° |
| 2026-05-04 03:51 | -25.93072 | 168.91674 | 35029 ft | 566 kts | 71° |
| 2026-05-04 03:52 | -25.89789 | 168.99625 | 35029 ft | 566 kts | 71° |
| 2026-05-04 03:52 | -25.86489 | 169.07558 | 35028 ft | 566 kts | 71° |
| 2026-05-04 03:53 | -25.83181 | 169.15490 | 35026 ft | 566 kts | 71° |
| 2026-05-04 03:53 | -25.79895 | 169.23358 | 35026 ft | 566 kts | 71° |
| 2026-05-04 03:54 | -25.76581 | 169.31279 | 35029 ft | 566 kts | 70° |
| 2026-05-04 03:54 | -25.73265 | 169.39191 | 35027 ft | 566 kts | 70° |
| 2026-05-04 03:55 | -25.69939 | 169.47110 | 35050 ft | 566 kts | 71° |
| 2026-05-04 03:55 | -25.66608 | 169.55024 | 35048 ft | 566 kts | 71° |
| 2026-05-04 03:56 | -25.63301 | 169.62870 | 35037 ft | 565 kts | 71° |
| 2026-05-04 03:56 | -25.59976 | 169.70745 | 35029 ft | 564 kts | 71° |
| 2026-05-04 03:57 | -25.56644 | 169.78619 | 35027 ft | 564 kts | 71° |
| 2026-05-04 03:57 | -25.53319 | 169.86464 | 35047 ft | 562 kts | 71° |
| 2026-05-04 03:58 | -25.48361 | 169.98135 | 35034 ft | 560 kts | 71° |
| 2026-05-04 03:58 | -25.45038 | 170.05942 | 35028 ft | 559 kts | 71° |
| 2026-05-04 03:59 | -25.41724 | 170.13712 | 35011 ft | 559 kts | 71° |
| 2026-05-04 03:59 | -25.38406 | 170.21479 | 35052 ft | 557 kts | 70° |
| 2026-05-04 04:00 | -25.35118 | 170.29160 | 35041 ft | 556 kts | 70° |
| 2026-05-04 04:00 | -25.31886 | 170.36885 | 35005 ft | 551 kts | 74° |
| 2026-05-04 04:01 | -25.29112 | 170.44760 | 35001 ft | 549 kts | 75° |
| 2026-05-04 04:01 | -25.26349 | 170.52617 | 35004 ft | 549 kts | 75° |
| 2026-05-04 04:02 | -25.23553 | 170.60393 | 35051 ft | 548 kts | 73° |
| 2026-05-04 04:02 | -25.20751 | 170.68127 | 35040 ft | 546 kts | 73° |
| 2026-05-04 04:03 | -25.17900 | 170.75976 | 35023 ft | 545 kts | 73° |
| 2026-05-04 04:03 | -25.15092 | 170.83690 | 35019 ft | 544 kts | 73° |
| 2026-05-04 04:04 | -25.12267 | 170.91435 | 35034 ft | 544 kts | 73° |
| 2026-05-04 04:04 | -25.09449 | 170.99147 | 35052 ft | 541 kts | 71° |
| 2026-05-04 04:05 | -25.06636 | 171.06826 | 35045 ft | 539 kts | 71° |
| 2026-05-04 04:05 | -25.03830 | 171.14476 | 35029 ft | 537 kts | 71° |
| 2026-05-04 04:06 | -25.01048 | 171.22047 | 35016 ft | 536 kts | 71° |
| 2026-05-04 04:06 | -24.98254 | 171.29639 | 35023 ft | 534 kts | 70° |
| 2026-05-04 04:07 | -24.95465 | 171.37199 | 35045 ft | 531 kts | 70° |
| 2026-05-04 04:07 | -24.92685 | 171.44721 | 35029 ft | 529 kts | 70° |
| 2026-05-04 04:08 | -24.89908 | 171.52223 | 35016 ft | 528 kts | 70° |
| 2026-05-04 04:08 | -24.87153 | 171.59651 | 35003 ft | 527 kts | 70° |
| 2026-05-04 04:09 | -24.84384 | 171.67108 | 35022 ft | 525 kts | 69° |
| 2026-05-04 04:09 | -24.81621 | 171.74529 | 35028 ft | 523 kts | 69° |
| 2026-05-04 04:10 | -24.78864 | 171.81922 | 35034 ft | 521 kts | 69° |
| 2026-05-04 04:10 | -24.76127 | 171.89249 | 35004 ft | 520 kts | 69° |
| 2026-05-04 04:11 | -24.73380 | 171.96594 | 35013 ft | 519 kts | 69° |
| 2026-05-04 04:11 | -24.70629 | 172.03935 | 35019 ft | 519 kts | 69° |
| 2026-05-04 04:12 | -24.67878 | 172.11263 | 35038 ft | 518 kts | 68° |
| 2026-05-04 04:12 | -24.65125 | 172.18583 | 35016 ft | 518 kts | 69° |
| 2026-05-04 04:13 | -24.62393 | 172.25834 | 35023 ft | 518 kts | 68° |
| 2026-05-04 04:13 | -24.59631 | 172.33153 | 35022 ft | 518 kts | 69° |
| 2026-05-04 04:14 | -24.56865 | 172.40470 | 35016 ft | 518 kts | 68° |
| 2026-05-04 04:14 | -24.54104 | 172.47763 | 35059 ft | 516 kts | 67° |
| 2026-05-04 04:15 | -24.51364 | 172.54985 | 35034 ft | 515 kts | 67° |
| 2026-05-04 04:15 | -24.48607 | 172.62241 | 35049 ft | 514 kts | 67° |
| 2026-05-04 04:16 | -24.45860 | 172.69458 | 35008 ft | 513 kts | 67° |
| 2026-05-04 04:16 | -24.43104 | 172.76687 | 35032 ft | 512 kts | 67° |
| 2026-05-04 04:17 | -24.40370 | 172.83844 | 34999 ft | 512 kts | 67° |
| 2026-05-04 04:17 | -24.37617 | 172.91041 | 35031 ft | 511 kts | 67° |
| 2026-05-04 04:18 | -24.34858 | 172.98241 | 35003 ft | 513 kts | 67° |
| 2026-05-04 04:18 | -24.32096 | 173.05439 | 35029 ft | 512 kts | 67° |
| 2026-05-04 04:19 | -24.29324 | 173.12648 | 35016 ft | 513 kts | 67° |
| 2026-05-04 04:19 | -24.26567 | 173.19807 | 35027 ft | 514 kts | 66° |
| 2026-05-04 04:20 | -24.23781 | 173.27029 | 35027 ft | 515 kts | 66° |
| 2026-05-04 04:20 | -24.20997 | 173.34235 | 35067 ft | 512 kts | 66° |
| 2026-05-04 04:21 | -24.18221 | 173.41408 | 35061 ft | 511 kts | 65° |
| 2026-05-04 04:21 | -24.15467 | 173.48512 | 35037 ft | 509 kts | 65° |
| 2026-05-04 04:22 | -24.12703 | 173.55635 | 35037 ft | 508 kts | 64° |
| 2026-05-04 04:22 | -24.09938 | 173.62741 | 35008 ft | 508 kts | 64° |
| 2026-05-04 04:23 | -24.07170 | 173.69844 | 35025 ft | 507 kts | 64° |
| 2026-05-04 04:23 | -24.04402 | 173.76939 | 35010 ft | 507 kts | 64° |
| 2026-05-04 04:24 | -24.01646 | 173.83991 | 35029 ft | 508 kts | 64° |
| 2026-05-04 04:24 | -23.98864 | 173.91098 | 35017 ft | 509 kts | 64° |
| 2026-05-04 04:25 | -23.96078 | 173.98203 | 35040 ft | 509 kts | 64° |
| 2026-05-04 04:25 | -23.93288 | 174.05309 | 35041 ft | 509 kts | 64° |
| 2026-05-04 04:26 | -23.90513 | 174.12365 | 35045 ft | 508 kts | 64° |
| 2026-05-04 04:26 | -23.87723 | 174.19447 | 35041 ft | 508 kts | 64° |
| 2026-05-04 04:27 | -23.84931 | 174.26525 | 35032 ft | 507 kts | 64° |
| 2026-05-04 04:27 | -23.82135 | 174.33600 | 35045 ft | 506 kts | 63° |
| 2026-05-04 04:28 | -23.79362 | 174.40606 | 35040 ft | 505 kts | 63° |
| 2026-05-04 04:28 | -23.76573 | 174.47641 | 35028 ft | 505 kts | 63° |
| 2026-05-04 04:29 | -23.73784 | 174.54664 | 35027 ft | 504 kts | 63° |
| 2026-05-04 04:29 | -23.70995 | 174.61676 | 35024 ft | 504 kts | 63° |
| 2026-05-04 04:30 | -23.68202 | 174.68691 | 35027 ft | 504 kts | 62° |
| 2026-05-04 04:30 | -23.65425 | 174.75651 | 35021 ft | 503 kts | 62° |
| 2026-05-04 04:31 | -23.62631 | 174.82644 | 35030 ft | 503 kts | 62° |
| 2026-05-04 04:31 | -23.59836 | 174.89629 | 35031 ft | 503 kts | 62° |
| 2026-05-04 04:32 | -23.57036 | 174.96614 | 35027 ft | 503 kts | 62° |
| 2026-05-04 04:32 | -23.54255 | 175.03544 | 35032 ft | 502 kts | 62° |
| 2026-05-04 04:33 | -23.51445 | 175.10531 | 34999 ft | 504 kts | 62° |
| 2026-05-04 04:33 | -23.48626 | 175.17533 | 35014 ft | 505 kts | 62° |
| 2026-05-04 04:34 | -23.45797 | 175.24548 | 35026 ft | 507 kts | 62° |
| 2026-05-04 04:34 | -23.42973 | 175.31542 | 35045 ft | 508 kts | 62° |
| 2026-05-04 04:35 | -23.40123 | 175.38588 | 35042 ft | 509 kts | 62° |
| 2026-05-04 04:35 | -23.37266 | 175.45641 | 35039 ft | 510 kts | 62° |
| 2026-05-04 04:36 | -23.34399 | 175.52704 | 35041 ft | 510 kts | 62° |
| 2026-05-04 04:36 | -23.31550 | 175.59717 | 35046 ft | 510 kts | 62° |
| 2026-05-04 04:37 | -23.25801 | 175.73833 | 35040 ft | 510 kts | 62° |
| 2026-05-04 04:38 | -23.22924 | 175.80882 | 35029 ft | 510 kts | 62° |
| 2026-05-04 04:38 | -23.20043 | 175.87925 | 35017 ft | 511 kts | 62° |
| 2026-05-04 04:39 | -23.17171 | 175.94940 | 35018 ft | 511 kts | 62° |
| 2026-05-04 04:39 | -23.14274 | 176.02003 | 35024 ft | 512 kts | 62° |
| 2026-05-04 04:40 | -23.11379 | 176.09053 | 35030 ft | 512 kts | 62° |
| 2026-05-04 04:40 | -23.08469 | 176.16130 | 35031 ft | 512 kts | 62° |
| 2026-05-04 04:41 | -23.05581 | 176.23149 | 34997 ft | 513 kts | 62° |
| 2026-05-04 04:41 | -23.02660 | 176.30237 | 35013 ft | 515 kts | 62° |
| 2026-05-04 04:42 | -22.99710 | 176.37320 | 35021 ft | 515 kts | 60° |
| 2026-05-04 04:42 | -22.96561 | 176.44311 | 35022 ft | 516 kts | 61° |
| 2026-05-04 04:43 | -22.93475 | 176.51344 | 35038 ft | 517 kts | 61° |
| 2026-05-04 04:43 | -22.90384 | 176.58331 | 35037 ft | 517 kts | 60° |
| 2026-05-04 04:44 | -22.87261 | 176.65353 | 35038 ft | 517 kts | 60° |
| 2026-05-04 04:44 | -22.84134 | 176.72368 | 35032 ft | 517 kts | 60° |
| 2026-05-04 04:45 | -22.81005 | 176.79380 | 35026 ft | 516 kts | 60° |
| 2026-05-04 04:47 | -22.70081 | 177.03784 | 35015 ft | 514 kts | 60° |
| 2026-05-04 04:47 | -22.66955 | 177.10744 | 35011 ft | 514 kts | 60° |
| 2026-05-04 04:48 | -22.63845 | 177.17657 | 35013 ft | 514 kts | 60° |
| 2026-05-04 04:49 | -22.56002 | 177.35054 | 35010 ft | 515 kts | 60° |
| 2026-05-04 04:49 | -22.52873 | 177.41977 | 35015 ft | 515 kts | 60° |
| 2026-05-04 04:50 | -22.49721 | 177.48939 | 35018 ft | 516 kts | 60° |
| 2026-05-04 04:50 | -22.46563 | 177.55909 | 35025 ft | 516 kts | 60° |
| 2026-05-04 04:51 | -22.43399 | 177.62879 | 35018 ft | 516 kts | 60° |
| 2026-05-04 04:51 | -22.40241 | 177.69828 | 35030 ft | 515 kts | 60° |
| 2026-05-04 04:52 | -22.37096 | 177.76737 | 35023 ft | 515 kts | 59° |
| 2026-05-04 04:52 | -22.33933 | 177.83677 | 35019 ft | 514 kts | 59° |
| 2026-05-04 04:53 | -22.30771 | 177.90605 | 35015 ft | 514 kts | 59° |
| 2026-05-04 04:53 | -22.27608 | 177.97525 | 35013 ft | 514 kts | 59° |
| 2026-05-04 04:54 | -22.24463 | 178.04397 | 35010 ft | 514 kts | 59° |
| 2026-05-04 04:54 | -22.21294 | 178.11312 | 35003 ft | 514 kts | 59° |
| 2026-05-04 04:55 | -22.18119 | 178.18229 | 35007 ft | 515 kts | 59° |
| 2026-05-04 04:55 | -22.14937 | 178.25154 | 35013 ft | 515 kts | 59° |
| 2026-05-04 04:56 | -22.11747 | 178.32085 | 35005 ft | 516 kts | 59° |
| 2026-05-04 04:56 | -22.08580 | 178.38960 | 35033 ft | 515 kts | 59° |
| 2026-05-04 04:57 | -22.05389 | 178.45875 | 35021 ft | 515 kts | 59° |
| 2026-05-04 04:57 | -22.02193 | 178.52792 | 35010 ft | 516 kts | 59° |
| 2026-05-04 04:58 | -21.98992 | 178.59708 | 35017 ft | 516 kts | 59° |
| 2026-05-04 04:58 | -21.95809 | 178.66583 | 35019 ft | 516 kts | 59° |
| 2026-05-04 04:59 | -21.92326 | 178.73302 | 35009 ft | 513 kts | 55° |
| 2026-05-04 04:59 | -21.88769 | 178.79973 | 35012 ft | 514 kts | 55° |
| 2026-05-04 05:00 | -21.85215 | 178.86645 | 35005 ft | 514 kts | 55° |
| 2026-05-04 05:01 | -21.79887 | 178.96606 | 35011 ft | 515 kts | 55° |
| 2026-05-04 05:01 | -21.76311 | 179.03279 | 35005 ft | 515 kts | 55° |
| 2026-05-04 05:02 | -21.72729 | 179.09951 | 35007 ft | 515 kts | 55° |
| 2026-05-04 05:02 | -21.69143 | 179.16624 | 34999 ft | 515 kts | 54° |
| 2026-05-04 05:03 | -21.65576 | 179.23253 | 35004 ft | 516 kts | 54° |
| 2026-05-04 05:04 | -21.58394 | 179.36576 | 35016 ft | 515 kts | 54° |
| 2026-05-04 05:04 | -21.54801 | 179.43228 | 35018 ft | 514 kts | 54° |
| 2026-05-04 05:06 | -21.40453 | 179.69712 | 34988 ft | 514 kts | 54° |
| 2026-05-04 05:07 | -21.36848 | 179.76347 | 35008 ft | 514 kts | 54° |
| 2026-05-04 05:07 | -21.33241 | 179.82977 | 35011 ft | 515 kts | 54° |
| 2026-05-04 05:09 | -21.16997 | -179.87265 | 34996 ft | 517 kts | 54° |
| 2026-05-04 05:10 | -21.13363 | -179.80629 | 34986 ft | 517 kts | 53° |
| 2026-05-04 05:10 | -21.09718 | -179.73981 | 35005 ft | 517 kts | 53° |
| 2026-05-04 05:11 | -21.06078 | -179.67350 | 35008 ft | 517 kts | 53° |
| 2026-05-04 05:11 | -21.02429 | -179.60712 | 35009 ft | 517 kts | 53° |
| 2026-05-04 05:12 | -20.98804 | -179.54125 | 34999 ft | 517 kts | 53° |
| 2026-05-04 05:12 | -20.95155 | -179.47502 | 34998 ft | 517 kts | 53° |
| 2026-05-04 05:13 | -20.91507 | -179.40887 | 34994 ft | 516 kts | 53° |
| 2026-05-04 05:13 | -20.87853 | -179.34272 | 34996 ft | 516 kts | 53° |
| 2026-05-04 05:14 | -20.84226 | -179.27711 | 34992 ft | 516 kts | 53° |
| 2026-05-04 05:14 | -20.80570 | -179.21108 | 34970 ft | 516 kts | 53° |
| 2026-05-04 05:15 | -20.76909 | -179.14502 | 34964 ft | 517 kts | 53° |
| 2026-05-04 05:15 | -20.73240 | -179.07890 | 34973 ft | 518 kts | 53° |
| 2026-05-04 05:16 | -20.69576 | -179.01295 | 34983 ft | 520 kts | 53° |
| 2026-05-04 05:16 | -20.65878 | -178.94647 | 34990 ft | 521 kts | 53° |
| 2026-05-04 05:17 | -20.62174 | -178.87994 | 35005 ft | 522 kts | 53° |
| 2026-05-04 05:17 | -20.58460 | -178.81332 | 34989 ft | 522 kts | 53° |
| 2026-05-04 05:18 | -20.54767 | -178.74715 | 34994 ft | 523 kts | 53° |
| 2026-05-04 05:18 | -20.51045 | -178.68053 | 34996 ft | 523 kts | 53° |
| 2026-05-04 05:19 | -20.47317 | -178.61389 | 34997 ft | 523 kts | 53° |
| 2026-05-04 05:19 | -20.43590 | -178.54734 | 34974 ft | 523 kts | 52° |
| 2026-05-04 05:20 | -20.39856 | -178.48075 | 34976 ft | 524 kts | 52° |
| 2026-05-04 05:20 | -20.36143 | -178.41461 | 34989 ft | 523 kts | 52° |
| 2026-05-04 05:21 | -20.32409 | -178.34816 | 34985 ft | 523 kts | 52° |
| 2026-05-04 05:21 | -20.28673 | -178.28177 | 34987 ft | 522 kts | 52° |
| 2026-05-04 05:22 | -20.24932 | -178.21537 | 34988 ft | 522 kts | 52° |
| 2026-05-04 05:22 | -20.21220 | -178.14954 | 34982 ft | 522 kts | 52° |
| 2026-05-04 05:23 | -20.17476 | -178.08323 | 34959 ft | 522 kts | 51° |
| 2026-05-04 05:23 | -20.13738 | -178.01708 | 34978 ft | 521 kts | 51° |
| 2026-05-04 05:24 | -20.09998 | -177.95100 | 34957 ft | 521 kts | 51° |
| 2026-05-04 05:24 | -20.06278 | -177.88531 | 34961 ft | 522 kts | 51° |
| 2026-05-04 05:25 | -20.02447 | -177.81986 | 34958 ft | 517 kts | 46° |
| 2026-05-04 05:25 | -19.98271 | -177.75769 | 34964 ft | 518 kts | 46° |
| 2026-05-04 05:26 | -19.94116 | -177.69514 | 34968 ft | 518 kts | 46° |
| 2026-05-04 05:26 | -19.89988 | -177.63316 | 34992 ft | 517 kts | 46° |
| 2026-05-04 05:28 | -19.73591 | -177.38382 | 34961 ft | 513 kts | 46° |
| 2026-05-04 05:29 | -19.69509 | -177.32165 | 34936 ft | 513 kts | 46° |
| 2026-05-04 05:29 | -19.65439 | -177.25972 | 34954 ft | 512 kts | 46° |
| 2026-05-04 05:31 | -19.49168 | -177.01281 | 34952 ft | 512 kts | 46° |
| 2026-05-04 05:32 | -19.45082 | -176.95095 | 34952 ft | 512 kts | 46° |
| 2026-05-04 05:33 | -19.38969 | -176.85854 | 34929 ft | 514 kts | 47° |
| 2026-05-04 05:33 | -19.34859 | -176.79649 | 34943 ft | 515 kts | 47° |
| 2026-05-04 05:34 | -19.30739 | -176.73435 | 34969 ft | 517 kts | 47° |
| 2026-05-04 05:34 | -19.26599 | -176.67195 | 34970 ft | 518 kts | 47° |
| 2026-05-04 05:35 | -19.22480 | -176.60995 | 34968 ft | 519 kts | 47° |
| 2026-05-04 05:35 | -19.18330 | -176.54754 | 34958 ft | 519 kts | 47° |
| 2026-05-04 05:36 | -19.14177 | -176.48514 | 34959 ft | 519 kts | 47° |
| 2026-05-04 05:36 | -19.10720 | -176.43324 | 34959 ft | 519 kts | 47° |
| 2026-05-04 05:37 | -19.06563 | -176.37090 | 34946 ft | 519 kts | 47° |
| 2026-05-04 05:37 | -19.01729 | -176.29849 | 34944 ft | 519 kts | 47° |
| 2026-05-04 05:38 | -18.96189 | -176.21561 | 34946 ft | 519 kts | 47° |
| 2026-05-04 05:38 | -18.92027 | -176.15342 | 34936 ft | 518 kts | 47° |
| 2026-05-04 05:39 | -18.85109 | -176.05017 | 34939 ft | 518 kts | 47° |
| 2026-05-04 05:40 | -18.79564 | -175.96754 | 34934 ft | 518 kts | 47° |
| 2026-05-04 05:40 | -18.75400 | -175.90556 | 34931 ft | 518 kts | 47° |
| 2026-05-04 05:41 | -18.71236 | -175.84365 | 34925 ft | 517 kts | 47° |
| 2026-05-04 05:41 | -18.67067 | -175.78173 | 34927 ft | 517 kts | 47° |
| 2026-05-04 05:42 | -18.62926 | -175.72027 | 34929 ft | 518 kts | 47° |
| 2026-05-04 05:42 | -18.58752 | -175.65839 | 34931 ft | 518 kts | 47° |
| 2026-05-04 05:43 | -18.54575 | -175.59653 | 34926 ft | 518 kts | 47° |
| 2026-05-04 05:45 | -18.37877 | -175.34980 | 34938 ft | 518 kts | 47° |
| 2026-05-04 05:47 | -18.21153 | -175.10364 | 34941 ft | 517 kts | 48° |
| 2026-05-04 05:47 | -18.16962 | -175.04209 | 34936 ft | 517 kts | 48° |
| 2026-05-04 05:48 | -18.12770 | -174.98061 | 34928 ft | 518 kts | 48° |
| 2026-05-04 05:48 | -18.08601 | -174.91948 | 34931 ft | 518 kts | 48° |
| 2026-05-04 05:49 | -18.04363 | -174.85830 | 34936 ft | 515 kts | 44° |
| 2026-05-04 05:49 | -17.99834 | -174.80009 | 34942 ft | 515 kts | 45° |
| 2026-05-04 05:51 | -17.81784 | -174.56632 | 34933 ft | 518 kts | 45° |
| 2026-05-04 05:52 | -17.77236 | -174.50763 | 34935 ft | 519 kts | 45° |
| 2026-05-04 05:52 | -17.72713 | -174.44931 | 34942 ft | 519 kts | 45° |
| 2026-05-04 05:54 | -17.54444 | -174.21425 | 34935 ft | 521 kts | 44° |
| 2026-05-04 05:55 | -17.49891 | -174.15580 | 34938 ft | 521 kts | 44° |
| 2026-05-04 05:55 | -17.45307 | -174.09701 | 34940 ft | 521 kts | 44° |
| 2026-05-04 05:56 | -17.40721 | -174.03824 | 34941 ft | 521 kts | 44° |
| 2026-05-04 05:56 | -17.36132 | -173.97947 | 34940 ft | 521 kts | 44° |
| 2026-05-04 05:57 | -17.31577 | -173.92120 | 34940 ft | 521 kts | 44° |
| 2026-05-04 05:57 | -17.26993 | -173.86263 | 34949 ft | 519 kts | 45° |
| 2026-05-04 05:58 | -17.22421 | -173.80423 | 34946 ft | 518 kts | 45° |
| 2026-05-04 05:58 | -17.17862 | -173.74606 | 34938 ft | 517 kts | 45° |
| 2026-05-04 05:59 | -17.13336 | -173.68836 | 34932 ft | 516 kts | 45° |
| 2026-05-04 05:59 | -17.08789 | -173.63045 | 34926 ft | 515 kts | 45° |
| 2026-05-04 06:00 | -17.04237 | -173.57251 | 34925 ft | 515 kts | 45° |
| 2026-05-04 06:00 | -16.99694 | -173.51475 | 34926 ft | 515 kts | 45° |
| 2026-05-04 06:01 | -16.95167 | -173.45723 | 34926 ft | 515 kts | 45° |
| 2026-05-04 06:03 | -16.76942 | -173.22617 | 34911 ft | 516 kts | 46° |
| 2026-05-04 06:05 | -16.56423 | -172.96692 | 34930 ft | 515 kts | 46° |
| 2026-05-04 06:06 | -16.51891 | -172.90980 | 34924 ft | 515 kts | 46° |
| 2026-05-04 06:06 | -16.47328 | -172.85231 | 34919 ft | 514 kts | 46° |
| 2026-05-04 06:07 | -16.42767 | -172.79492 | 34920 ft | 514 kts | 46° |
| 2026-05-04 06:07 | -16.38202 | -172.73752 | 34897 ft | 515 kts | 46° |
| 2026-05-04 06:08 | -16.33659 | -172.68045 | 34897 ft | 516 kts | 46° |
| 2026-05-04 06:08 | -16.29079 | -172.62295 | 34916 ft | 517 kts | 46° |
| 2026-05-04 06:09 | -16.24488 | -172.56535 | 34911 ft | 517 kts | 46° |
| 2026-05-04 06:11 | -16.06109 | -172.33526 | 34928 ft | 518 kts | 47° |
| 2026-05-04 06:13 | -15.87737 | -172.10598 | 34914 ft | 516 kts | 47° |
| 2026-05-04 06:14 | -15.71701 | -171.90644 | 34909 ft | 514 kts | 47° |
| 2026-05-04 06:15 | -15.67114 | -171.84947 | 34909 ft | 514 kts | 47° |
| 2026-05-04 06:15 | -15.62526 | -171.79253 | 34906 ft | 514 kts | 47° |
| 2026-05-04 06:16 | -15.57940 | -171.73565 | 34910 ft | 514 kts | 47° |
| 2026-05-04 06:16 | -15.53377 | -171.67910 | 34912 ft | 515 kts | 47° |
| 2026-05-04 06:17 | -15.48781 | -171.62218 | 34914 ft | 515 kts | 47° |
| 2026-05-04 06:17 | -15.44182 | -171.56528 | 34917 ft | 515 kts | 47° |
| 2026-05-04 06:18 | -15.39606 | -171.50870 | 34917 ft | 515 kts | 47° |
| 2026-05-04 06:20 | -15.21172 | -171.28114 | 34919 ft | 515 kts | 47° |
| 2026-05-04 06:21 | -15.08694 | -171.14948 | 34907 ft | 515 kts | 42° |
| 2026-05-04 06:22 | -15.03646 | -171.09704 | 34916 ft | 515 kts | 42° |
| 2026-05-04 06:25 | -14.68100 | -170.72934 | 34909 ft | 519 kts | 42° |
| 2026-05-04 06:26 | -14.62995 | -170.67669 | 34920 ft | 518 kts | 42° |
| 2026-05-04 06:26 | -14.57897 | -170.62415 | 34926 ft | 517 kts | 42° |
| 2026-05-04 06:27 | -14.45215 | -170.49360 | 34886 ft | 517 kts | 42° |
| 2026-05-04 06:28 | -14.40110 | -170.44112 | 34898 ft | 517 kts | 42° |
| 2026-05-04 06:28 | -14.35048 | -170.38911 | 34902 ft | 517 kts | 42° |
| 2026-05-04 06:29 | -14.29946 | -170.33672 | 34904 ft | 518 kts | 42° |
| 2026-05-04 06:29 | -14.24842 | -170.28435 | 34919 ft | 518 kts | 42° |
| 2026-05-04 06:30 | -14.19728 | -170.23190 | 34912 ft | 519 kts | 42° |
| 2026-05-04 06:30 | -14.14614 | -170.17950 | 34911 ft | 519 kts | 42° |
| 2026-05-04 06:31 | -14.09539 | -170.12754 | 34917 ft | 519 kts | 42° |
| 2026-05-04 06:31 | -14.04407 | -170.07502 | 34922 ft | 519 kts | 42° |
| 2026-05-04 06:33 | -13.84029 | -169.86682 | 34923 ft | 514 kts | 43° |
| 2026-05-04 06:34 | -13.78954 | -169.81506 | 34915 ft | 513 kts | 43° |
| 2026-05-04 06:34 | -13.73890 | -169.76344 | 34898 ft | 513 kts | 42° |
| 2026-05-04 06:36 | -13.53542 | -169.55638 | 34913 ft | 520 kts | 43° |
| 2026-05-04 06:37 | -13.48390 | -169.50404 | 34941 ft | 522 kts | 43° |
| 2026-05-04 06:37 | -13.43255 | -169.45189 | 34942 ft | 523 kts | 43° |
| 2026-05-04 06:38 | -13.38072 | -169.39931 | 34911 ft | 525 kts | 43° |
| 2026-05-04 06:40 | -13.17246 | -169.18831 | 34959 ft | 525 kts | 43° |
| 2026-05-04 06:40 | -13.12054 | -169.13578 | 34946 ft | 524 kts | 43° |
| 2026-05-04 06:41 | -13.06870 | -169.08338 | 34936 ft | 522 kts | 43° |
| 2026-05-04 06:41 | -13.01694 | -169.03109 | 34902 ft | 522 kts | 43° |
| 2026-05-04 06:42 | -12.96564 | -168.97930 | 34897 ft | 521 kts | 43° |
| 2026-05-04 06:44 | -12.75905 | -168.77104 | 34914 ft | 523 kts | 42° |
| 2026-05-04 06:44 | -12.70713 | -168.71878 | 34921 ft | 524 kts | 42° |
| 2026-05-04 06:45 | -12.65514 | -168.66649 | 34916 ft | 525 kts | 43° |
| 2026-05-04 06:45 | -12.60299 | -168.61406 | 34915 ft | 526 kts | 43° |
| 2026-05-04 06:46 | -12.55112 | -168.56194 | 34920 ft | 527 kts | 43° |
| 2026-05-04 06:46 | -12.49872 | -168.50932 | 34944 ft | 527 kts | 43° |
| 2026-05-04 06:48 | -12.29035 | -168.30039 | 34925 ft | 524 kts | 43° |
| 2026-05-04 06:50 | -12.08300 | -168.09298 | 34926 ft | 521 kts | 42° |
| 2026-05-04 06:51 | -12.03124 | -168.04128 | 34923 ft | 520 kts | 42° |
| 2026-05-04 06:51 | -11.97952 | -167.98965 | 34917 ft | 520 kts | 42° |
| 2026-05-04 06:52 | -11.92783 | -167.93808 | 34903 ft | 520 kts | 42° |
| 2026-05-04 06:52 | -11.87639 | -167.88679 | 34901 ft | 521 kts | 42° |
| 2026-05-04 06:53 | -11.82447 | -167.83505 | 34909 ft | 522 kts | 42° |
| 2026-05-04 06:53 | -11.77254 | -167.78332 | 34913 ft | 522 kts | 42° |
| 2026-05-04 06:54 | -11.72054 | -167.73155 | 34944 ft | 522 kts | 42° |
| 2026-05-04 06:54 | -11.66862 | -167.67989 | 34941 ft | 521 kts | 42° |
| 2026-05-04 06:55 | -11.61706 | -167.62862 | 34936 ft | 521 kts | 42° |
| 2026-05-04 06:55 | -11.56525 | -167.57713 | 34918 ft | 520 kts | 42° |
| 2026-05-04 06:57 | -11.35808 | -167.37152 | 34920 ft | 521 kts | 43° |
| 2026-05-04 06:58 | -11.30611 | -167.32001 | 34925 ft | 521 kts | 43° |
| 2026-05-04 06:58 | -11.25414 | -167.26852 | 34941 ft | 523 kts | 43° |
| 2026-05-04 06:59 | -11.22802 | -167.24266 | 35288 ft | 523 kts | 43° |
| 2026-05-04 06:59 | -11.20231 | -167.21721 | 35686 ft | 522 kts | 43° |
| 2026-05-04 06:59 | -11.17629 | -167.19145 | 36015 ft | 523 kts | 43° |
| 2026-05-04 06:59 | -11.15020 | -167.16562 | 36385 ft | 522 kts | 43° |
| 2026-05-04 07:01 | -10.96492 | -166.99122 | 36922 ft | 517 kts | 39° |
| 2026-05-04 07:01 | -10.93752 | -166.96754 | 36922 ft | 517 kts | 39° |
| 2026-05-04 07:02 | -10.88265 | -166.92013 | 36926 ft | 517 kts | 39° |
| 2026-05-04 07:02 | -10.82774 | -166.87276 | 36925 ft | 517 kts | 38° |
| 2026-05-04 07:03 | -10.77316 | -166.82572 | 36916 ft | 518 kts | 39° |
| 2026-05-04 07:03 | -10.71818 | -166.77837 | 36919 ft | 518 kts | 38° |
| 2026-05-04 07:04 | -10.66310 | -166.73096 | 36922 ft | 519 kts | 38° |
| 2026-05-04 07:04 | -10.60802 | -166.68357 | 36924 ft | 519 kts | 38° |
| 2026-05-04 07:05 | -10.55294 | -166.63621 | 36927 ft | 519 kts | 38° |
| 2026-05-04 07:05 | -10.49810 | -166.58908 | 36927 ft | 519 kts | 38° |
| 2026-05-04 07:06 | -10.41532 | -166.51798 | 36924 ft | 519 kts | 38° |
| 2026-05-04 07:07 | -10.36014 | -166.47062 | 36913 ft | 520 kts | 38° |
| 2026-05-04 07:09 | -10.13956 | -166.28148 | 36928 ft | 518 kts | 38° |
| 2026-05-04 07:09 | -10.08447 | -166.23431 | 36921 ft | 518 kts | 38° |
| 2026-05-04 07:10 | -10.02981 | -166.18752 | 36919 ft | 517 kts | 38° |
| 2026-05-04 07:12 | -9.80985 | -165.99945 | 36916 ft | 519 kts | 38° |
| 2026-05-04 07:12 | -9.75466 | -165.95232 | 36921 ft | 519 kts | 38° |
| 2026-05-04 07:13 | -9.69937 | -165.90511 | 36921 ft | 520 kts | 38° |
| 2026-05-04 07:13 | -9.64409 | -165.85795 | 36931 ft | 520 kts | 38° |
| 2026-05-04 07:14 | -9.50614 | -165.74033 | 36923 ft | 520 kts | 39° |
| 2026-05-04 07:15 | -9.45079 | -165.69317 | 36924 ft | 520 kts | 39° |
| 2026-05-04 07:15 | -9.39542 | -165.64602 | 36924 ft | 520 kts | 39° |
| 2026-05-04 07:16 | -9.34005 | -165.59889 | 36923 ft | 520 kts | 39° |
| 2026-05-04 07:16 | -9.28500 | -165.55205 | 36925 ft | 520 kts | 39° |
| 2026-05-04 07:17 | -9.22966 | -165.50497 | 36922 ft | 520 kts | 38° |
| 2026-05-04 07:17 | -9.17430 | -165.45791 | 36919 ft | 520 kts | 38° |
| 2026-05-04 07:18 | -9.11895 | -165.41088 | 36921 ft | 519 kts | 39° |
| 2026-05-04 07:18 | -9.06397 | -165.36417 | 36916 ft | 519 kts | 39° |
| 2026-05-04 07:19 | -9.00864 | -165.31720 | 36918 ft | 519 kts | 39° |
| 2026-05-04 07:19 | -8.95330 | -165.27022 | 36917 ft | 520 kts | 39° |
| 2026-05-04 07:20 | -8.89791 | -165.22323 | 36912 ft | 520 kts | 39° |
| 2026-05-04 07:20 | -8.84299 | -165.17666 | 36914 ft | 520 kts | 39° |
| 2026-05-04 07:22 | -8.62164 | -164.98915 | 36913 ft | 520 kts | 39° |
| 2026-05-04 07:23 | -8.56622 | -164.94224 | 36909 ft | 520 kts | 39° |
| 2026-05-04 07:23 | -8.51077 | -164.89532 | 36914 ft | 520 kts | 39° |
| 2026-05-04 07:24 | -8.45525 | -164.84837 | 36914 ft | 520 kts | 39° |
| 2026-05-04 07:24 | -8.40017 | -164.80181 | 36918 ft | 520 kts | 39° |
| 2026-05-04 07:26 | -8.17857 | -164.61466 | 36912 ft | 519 kts | 39° |
| 2026-05-04 07:27 | -8.12316 | -164.56790 | 36912 ft | 519 kts | 39° |
| 2026-05-04 07:27 | -8.06772 | -164.52115 | 36912 ft | 519 kts | 39° |
| 2026-05-04 07:28 | -8.01238 | -164.47449 | 36926 ft | 518 kts | 39° |
| 2026-05-04 07:28 | -7.95707 | -164.42787 | 36920 ft | 517 kts | 39° |
| 2026-05-04 07:29 | -7.90223 | -164.38167 | 36914 ft | 517 kts | 39° |
| 2026-05-04 07:29 | -7.84707 | -164.33521 | 36895 ft | 517 kts | 39° |
| 2026-05-04 07:30 | -7.79186 | -164.28873 | 36899 ft | 517 kts | 39° |
| 2026-05-04 07:30 | -7.73665 | -164.24227 | 36902 ft | 518 kts | 39° |
| 2026-05-04 07:31 | -7.68172 | -164.19605 | 36905 ft | 518 kts | 39° |
| 2026-05-04 07:33 | -7.46102 | -164.01054 | 36918 ft | 516 kts | 39° |
| 2026-05-04 07:33 | -7.40582 | -163.96418 | 36900 ft | 517 kts | 39° |
| 2026-05-04 07:34 | -7.35060 | -163.91782 | 36901 ft | 517 kts | 39° |
| 2026-05-04 07:34 | -7.29530 | -163.87141 | 36906 ft | 517 kts | 39° |
| 2026-05-04 07:35 | -7.24043 | -163.82536 | 36919 ft | 517 kts | 39° |
| 2026-05-04 07:35 | -7.18517 | -163.77902 | 36918 ft | 517 kts | 39° |
| 2026-05-04 07:36 | -7.12997 | -163.73274 | 36918 ft | 516 kts | 39° |
| 2026-05-04 07:38 | -6.90956 | -163.54808 | 36901 ft | 517 kts | 39° |
| 2026-05-04 07:38 | -6.85427 | -163.50180 | 36905 ft | 517 kts | 39° |
| 2026-05-04 07:39 | -6.79892 | -163.45548 | 36908 ft | 518 kts | 39° |
| 2026-05-04 07:39 | -6.74387 | -163.40942 | 36911 ft | 518 kts | 39° |
| 2026-05-04 07:40 | -6.68846 | -163.36307 | 36914 ft | 518 kts | 39° |
| 2026-05-04 07:40 | -6.63297 | -163.31667 | 36914 ft | 518 kts | 39° |
| 2026-05-04 07:41 | -6.57753 | -163.27032 | 36905 ft | 519 kts | 39° |
| 2026-05-04 07:41 | -6.52239 | -163.22427 | 36920 ft | 518 kts | 39° |
| 2026-05-04 07:42 | -6.46593 | -163.17926 | 36918 ft | 518 kts | 38° |
| 2026-05-04 07:42 | -6.40925 | -163.13453 | 36912 ft | 517 kts | 38° |
| 2026-05-04 07:43 | -6.35285 | -163.08974 | 36912 ft | 517 kts | 38° |
| 2026-05-04 07:43 | -6.29652 | -163.04493 | 36905 ft | 516 kts | 38° |
| 2026-05-04 07:44 | -6.24061 | -163.00046 | 36904 ft | 516 kts | 38° |
| 2026-05-04 07:44 | -6.18433 | -162.95570 | 36901 ft | 516 kts | 38° |
| 2026-05-04 07:45 | -6.12811 | -162.91102 | 36903 ft | 515 kts | 38° |
| 2026-05-04 07:45 | -6.07189 | -162.86635 | 36901 ft | 515 kts | 38° |
| 2026-05-04 07:46 | -6.01598 | -162.82193 | 36902 ft | 515 kts | 38° |
| 2026-05-04 07:46 | -5.95974 | -162.77726 | 36906 ft | 516 kts | 38° |
| 2026-05-04 07:47 | -5.90348 | -162.73258 | 36907 ft | 516 kts | 38° |
| 2026-05-04 07:49 | -5.67873 | -162.55424 | 36923 ft | 515 kts | 38° |
| 2026-05-04 07:49 | -5.62258 | -162.50971 | 36916 ft | 514 kts | 38° |
| 2026-05-04 07:50 | -5.56686 | -162.46554 | 36910 ft | 513 kts | 38° |
| 2026-05-04 07:50 | -5.51088 | -162.42117 | 36907 ft | 513 kts | 38° |
| 2026-05-04 07:51 | -5.45489 | -162.37681 | 36900 ft | 512 kts | 38° |
| 2026-05-04 07:51 | -5.39898 | -162.33251 | 36899 ft | 512 kts | 38° |
| 2026-05-04 07:52 | -5.34344 | -162.28852 | 36903 ft | 512 kts | 38° |
| 2026-05-04 07:52 | -5.28748 | -162.24422 | 36905 ft | 512 kts | 38° |
| 2026-05-04 07:54 | -5.06372 | -162.06714 | 36908 ft | 513 kts | 38° |
| 2026-05-04 07:55 | -5.00760 | -162.02276 | 36911 ft | 514 kts | 38° |
| 2026-05-04 07:55 | -4.95130 | -161.97860 | 36911 ft | 514 kts | 37° |
| 2026-05-04 07:56 | -4.89483 | -161.93471 | 36914 ft | 514 kts | 37° |
| 2026-05-04 07:56 | -4.83874 | -161.89105 | 36908 ft | 514 kts | 37° |
| 2026-05-04 07:57 | -4.78232 | -161.84710 | 36906 ft | 514 kts | 37° |
| 2026-05-04 07:57 | -4.72577 | -161.80305 | 36907 ft | 514 kts | 37° |
| 2026-05-04 07:58 | -4.66925 | -161.75903 | 36908 ft | 515 kts | 37° |
| 2026-05-04 07:58 | -4.61267 | -161.71497 | 36909 ft | 515 kts | 37° |
| 2026-05-04 07:59 | -4.55639 | -161.67116 | 36914 ft | 516 kts | 37° |
| 2026-05-04 07:59 | -4.49971 | -161.62705 | 36912 ft | 516 kts | 37° |
| 2026-05-04 08:00 | -4.44304 | -161.58296 | 36917 ft | 516 kts | 37° |
| 2026-05-04 08:02 | -4.21686 | -161.40705 | 36911 ft | 515 kts | 37° |
| 2026-05-04 08:02 | -4.16025 | -161.36304 | 36909 ft | 515 kts | 37° |
| 2026-05-04 08:03 | -4.10400 | -161.31932 | 36908 ft | 515 kts | 37° |
| 2026-05-04 08:03 | -4.04742 | -161.27536 | 36908 ft | 515 kts | 37° |
| 2026-05-04 08:04 | -3.99078 | -161.23134 | 36910 ft | 515 kts | 37° |
| 2026-05-04 08:04 | -3.93414 | -161.18735 | 36902 ft | 515 kts | 37° |
| 2026-05-04 08:05 | -3.87788 | -161.14365 | 36909 ft | 516 kts | 37° |
| 2026-05-04 08:05 | -3.82113 | -161.09958 | 36911 ft | 516 kts | 37° |
| 2026-05-04 08:06 | -3.76451 | -161.05563 | 36912 ft | 516 kts | 37° |
| 2026-05-04 08:06 | -3.70764 | -161.01149 | 36913 ft | 516 kts | 37° |
| 2026-05-04 08:08 | -3.47890 | -160.83835 | 36931 ft | 515 kts | 36° |
| 2026-05-04 08:11 | -3.22227 | -160.64588 | 36904 ft | 512 kts | 36° |
| 2026-05-04 08:11 | -3.13716 | -160.58209 | 36902 ft | 512 kts | 36° |
| 2026-05-04 08:12 | -3.08015 | -160.53936 | 36903 ft | 512 kts | 36° |
| 2026-05-04 08:12 | -3.02311 | -160.49661 | 36908 ft | 512 kts | 36° |
| 2026-05-04 08:13 | -2.96644 | -160.45415 | 36910 ft | 513 kts | 36° |
| 2026-05-04 08:13 | -2.90935 | -160.41138 | 36914 ft | 513 kts | 36° |
| 2026-05-04 08:14 | -2.85225 | -160.36861 | 36911 ft | 513 kts | 36° |
| 2026-05-04 08:16 | -2.62405 | -160.19771 | 36916 ft | 513 kts | 36° |
| 2026-05-04 08:16 | -2.56691 | -160.15494 | 36922 ft | 513 kts | 36° |
| 2026-05-04 08:17 | -2.51021 | -160.11249 | 36919 ft | 513 kts | 36° |
| 2026-05-04 08:17 | -2.45313 | -160.06977 | 36915 ft | 512 kts | 36° |
| 2026-05-04 08:19 | -2.22534 | -159.89931 | 36911 ft | 512 kts | 36° |
| 2026-05-04 08:20 | -2.16830 | -159.85665 | 36912 ft | 512 kts | 36° |
| 2026-05-04 08:20 | -2.11130 | -159.81401 | 36915 ft | 512 kts | 36° |
| 2026-05-04 08:21 | -2.05460 | -159.77160 | 36916 ft | 512 kts | 36° |
| 2026-05-04 08:21 | -1.99757 | -159.72895 | 36918 ft | 512 kts | 36° |
| 2026-05-04 08:22 | -1.94051 | -159.68628 | 36919 ft | 512 kts | 36° |
| 2026-05-04 08:24 | -1.71288 | -159.51609 | 36919 ft | 512 kts | 36° |
| 2026-05-04 08:24 | -1.65580 | -159.47343 | 36920 ft | 512 kts | 36° |
| 2026-05-04 08:25 | -1.59918 | -159.43110 | 36923 ft | 512 kts | 36° |
| 2026-05-04 08:25 | -1.54206 | -159.38841 | 36925 ft | 512 kts | 36° |
| 2026-05-04 08:27 | -1.31410 | -159.21806 | 36925 ft | 512 kts | 36° |
| 2026-05-04 08:28 | -1.26670 | -159.18265 | 36927 ft | 512 kts | 37° |
| 2026-05-04 08:28 | -1.20955 | -159.13994 | 36925 ft | 513 kts | 37° |
| 2026-05-04 08:29 | -1.14321 | -159.09039 | 36925 ft | 513 kts | 37° |
| 2026-05-04 08:31 | -0.91506 | -158.92001 | 36931 ft | 512 kts | 37° |
| 2026-05-04 08:33 | -0.69637 | -158.75680 | 36930 ft | 512 kts | 37° |
| 2026-05-04 08:35 | -0.46857 | -158.58682 | 36929 ft | 512 kts | 37° |
| 2026-05-04 08:35 | -0.41158 | -158.54429 | 36929 ft | 511 kts | 37° |
| 2026-05-04 08:37 | -0.21232 | -158.39562 | 36931 ft | 512 kts | 37° |
| 2026-05-04 08:38 | -0.15532 | -158.35309 | 36932 ft | 512 kts | 37° |
| 2026-05-04 08:38 | -0.09868 | -158.31083 | 36935 ft | 511 kts | 37° |
| 2026-05-04 08:40 | 0.12893 | -158.14101 | 36935 ft | 511 kts | 37° |
| 2026-05-04 08:41 | 0.18587 | -158.09853 | 36936 ft | 511 kts | 37° |
| 2026-05-04 08:41 | 0.24288 | -158.05599 | 36931 ft | 511 kts | 37° |
| 2026-05-04 08:42 | 0.29981 | -158.01351 | 36931 ft | 511 kts | 37° |
| 2026-05-04 08:42 | 0.35675 | -157.97103 | 36932 ft | 511 kts | 37° |
| 2026-05-04 08:43 | 0.41329 | -157.92884 | 36934 ft | 511 kts | 37° |
| 2026-05-04 08:43 | 0.47025 | -157.88634 | 36931 ft | 511 kts | 37° |
| 2026-05-04 08:44 | 0.52719 | -157.84386 | 36934 ft | 511 kts | 37° |
| 2026-05-04 08:46 | 0.75474 | -157.67406 | 36933 ft | 511 kts | 37° |
| 2026-05-04 08:46 | 0.81169 | -157.63155 | 36933 ft | 511 kts | 37° |
| 2026-05-04 08:47 | 0.86863 | -157.58906 | 36930 ft | 511 kts | 37° |
| 2026-05-04 08:47 | 0.92522 | -157.54682 | 36932 ft | 511 kts | 37° |
| 2026-05-04 08:48 | 0.98220 | -157.50429 | 36932 ft | 511 kts | 37° |
| 2026-05-04 08:48 | 1.03914 | -157.46180 | 36928 ft | 511 kts | 37° |
| 2026-05-04 08:49 | 1.09604 | -157.41932 | 36933 ft | 511 kts | 37° |
| 2026-05-04 08:50 | 1.29490 | -157.27087 | 36933 ft | 510 kts | 37° |
| 2026-05-04 08:51 | 1.35137 | -157.22871 | 36929 ft | 510 kts | 37° |
| 2026-05-04 08:51 | 1.40818 | -157.18629 | 36927 ft | 510 kts | 37° |
| 2026-05-04 08:52 | 1.46509 | -157.14380 | 36923 ft | 510 kts | 37° |
| 2026-05-04 08:52 | 1.52197 | -157.10132 | 36926 ft | 511 kts | 37° |
| 2026-05-04 08:54 | 1.74943 | -156.93144 | 36935 ft | 511 kts | 37° |
| 2026-05-04 08:55 | 1.80646 | -156.88884 | 36927 ft | 512 kts | 37° |
| 2026-05-04 08:55 | 1.86317 | -156.84647 | 36931 ft | 512 kts | 37° |
| 2026-05-04 09:01 | 2.46341 | -156.39781 | 36942 ft | 514 kts | 37° |
| 2026-05-04 09:01 | 2.52072 | -156.35494 | 36939 ft | 515 kts | 37° |
| 2026-05-04 09:02 | 2.57808 | -156.31204 | 36936 ft | 515 kts | 37° |
| 2026-05-04 09:02 | 2.63537 | -156.26918 | 36937 ft | 515 kts | 37° |
| 2026-05-04 09:03 | 2.69231 | -156.22658 | 36940 ft | 514 kts | 37° |
| 2026-05-04 09:03 | 2.74961 | -156.18371 | 36938 ft | 514 kts | 37° |
| 2026-05-04 09:04 | 2.80538 | -156.13886 | 36935 ft | 514 kts | 40° |
| 2026-05-04 09:04 | 2.86015 | -156.09272 | 36930 ft | 515 kts | 40° |
| 2026-05-04 09:05 | 2.91483 | -156.04726 | 36938 ft | 515 kts | 39° |
| 2026-05-04 09:05 | 2.97011 | -156.00157 | 36942 ft | 515 kts | 39° |
| 2026-05-04 09:06 | 3.02545 | -155.95585 | 36940 ft | 516 kts | 39° |
| 2026-05-04 09:08 | 3.24642 | -155.77320 | 36937 ft | 516 kts | 39° |
| 2026-05-04 09:08 | 3.30176 | -155.72743 | 36937 ft | 516 kts | 39° |
| 2026-05-04 09:09 | 3.35668 | -155.68202 | 36938 ft | 516 kts | 39° |
| 2026-05-04 09:09 | 3.41204 | -155.63622 | 36936 ft | 516 kts | 39° |
| 2026-05-04 09:10 | 3.46732 | -155.59049 | 36933 ft | 516 kts | 39° |
| 2026-05-04 09:10 | 3.52259 | -155.54476 | 36948 ft | 515 kts | 39° |
| 2026-05-04 09:11 | 3.57776 | -155.49910 | 36947 ft | 514 kts | 39° |
| 2026-05-04 09:11 | 3.63285 | -155.45350 | 36939 ft | 514 kts | 39° |
| 2026-05-04 09:12 | 3.68752 | -155.40824 | 36930 ft | 513 kts | 39° |
| 2026-05-04 09:14 | 3.90741 | -155.22613 | 36924 ft | 513 kts | 39° |
| 2026-05-04 09:14 | 3.96206 | -155.18085 | 36927 ft | 514 kts | 39° |
| 2026-05-04 09:15 | 4.01715 | -155.13520 | 36932 ft | 514 kts | 39° |
| 2026-05-04 09:15 | 4.07226 | -155.08953 | 36931 ft | 514 kts | 39° |
| 2026-05-04 09:17 | 4.32028 | -154.88385 | 36934 ft | 516 kts | 39° |
| 2026-05-04 09:18 | 4.37554 | -154.83800 | 36934 ft | 516 kts | 39° |
| 2026-05-04 09:18 | 4.43044 | -154.79244 | 36933 ft | 516 kts | 39° |
| 2026-05-04 09:19 | 4.48569 | -154.74658 | 36938 ft | 516 kts | 39° |
| 2026-05-04 09:19 | 4.54101 | -154.70065 | 36930 ft | 516 kts | 39° |
| 2026-05-04 09:20 | 4.59627 | -154.65477 | 36930 ft | 516 kts | 39° |
| 2026-05-04 09:20 | 4.65116 | -154.60918 | 36931 ft | 516 kts | 39° |
| 2026-05-04 09:21 | 4.70642 | -154.56327 | 36934 ft | 516 kts | 39° |
| 2026-05-04 09:21 | 4.76172 | -154.51733 | 36933 ft | 516 kts | 39° |
| 2026-05-04 09:22 | 4.81699 | -154.47140 | 36933 ft | 516 kts | 39° |
| 2026-05-04 09:22 | 4.87183 | -154.42581 | 36936 ft | 515 kts | 39° |
| 2026-05-04 09:23 | 4.92701 | -154.37993 | 36934 ft | 515 kts | 39° |
| 2026-05-04 09:23 | 4.98217 | -154.33405 | 36918 ft | 515 kts | 39° |
| 2026-05-04 09:25 | 5.20273 | -154.15053 | 36950 ft | 516 kts | 39° |
| 2026-05-04 09:26 | 5.25793 | -154.10457 | 36938 ft | 515 kts | 39° |
| 2026-05-04 09:26 | 5.31302 | -154.05869 | 36934 ft | 514 kts | 39° |
| 2026-05-04 09:27 | 5.36764 | -154.01320 | 36925 ft | 514 kts | 39° |
| 2026-05-04 09:27 | 5.42268 | -153.96733 | 36924 ft | 514 kts | 39° |
| 2026-05-04 09:28 | 5.47768 | -153.92150 | 36926 ft | 514 kts | 39° |
| 2026-05-04 09:28 | 5.53227 | -153.87600 | 36932 ft | 513 kts | 39° |
| 2026-05-04 09:29 | 5.58715 | -153.83025 | 36929 ft | 513 kts | 39° |
| 2026-05-04 09:29 | 5.64170 | -153.78405 | 36928 ft | 513 kts | 39° |
| 2026-05-04 09:30 | 5.69612 | -153.73767 | 36926 ft | 513 kts | 39° |
| 2026-05-04 09:30 | 5.75024 | -153.69165 | 36922 ft | 513 kts | 39° |
| 2026-05-04 09:31 | 5.80472 | -153.64535 | 36929 ft | 514 kts | 39° |
| 2026-05-04 09:31 | 5.85929 | -153.59897 | 36931 ft | 514 kts | 39° |
| 2026-05-04 09:32 | 5.91386 | -153.55258 | 36931 ft | 514 kts | 39° |
| 2026-05-04 09:34 | 6.13155 | -153.36735 | 36935 ft | 514 kts | 39° |
| 2026-05-04 09:34 | 6.18609 | -153.32092 | 36930 ft | 514 kts | 39° |
| 2026-05-04 09:35 | 6.24023 | -153.27481 | 36928 ft | 513 kts | 39° |
| 2026-05-04 09:35 | 6.29472 | -153.22839 | 36927 ft | 513 kts | 39° |
| 2026-05-04 09:37 | 6.51228 | -153.04292 | 36930 ft | 514 kts | 39° |
| 2026-05-04 09:38 | 6.56680 | -152.99640 | 36932 ft | 514 kts | 39° |
| 2026-05-04 09:38 | 6.62133 | -152.94987 | 36934 ft | 514 kts | 39° |
| 2026-05-04 09:39 | 6.67590 | -152.90329 | 36932 ft | 514 kts | 39° |
| 2026-05-04 09:39 | 6.73006 | -152.85704 | 36932 ft | 514 kts | 39° |
| 2026-05-04 09:40 | 6.78451 | -152.81054 | 36931 ft | 514 kts | 39° |
| 2026-05-04 09:40 | 6.83911 | -152.76388 | 36929 ft | 514 kts | 39° |
| 2026-05-04 09:42 | 7.05693 | -152.57763 | 36934 ft | 515 kts | 39° |
| 2026-05-04 09:43 | 7.11149 | -152.53093 | 36930 ft | 515 kts | 39° |
| 2026-05-04 09:43 | 7.16602 | -152.48426 | 36939 ft | 514 kts | 39° |
| 2026-05-04 09:44 | 7.22012 | -152.43793 | 36938 ft | 514 kts | 39° |
| 2026-05-04 09:46 | 7.43762 | -152.25152 | 36920 ft | 513 kts | 39° |
| 2026-05-04 09:46 | 7.49167 | -152.20516 | 36926 ft | 514 kts | 39° |
| 2026-05-04 09:47 | 7.54609 | -152.15848 | 36929 ft | 514 kts | 39° |
| 2026-05-04 09:49 | 7.76370 | -151.97160 | 36932 ft | 515 kts | 39° |
| 2026-05-04 09:51 | 7.95423 | -151.80775 | 36931 ft | 515 kts | 39° |
| 2026-05-04 09:51 | 8.00878 | -151.76081 | 36932 ft | 515 kts | 39° |
| 2026-05-04 09:52 | 8.06329 | -151.71388 | 36938 ft | 515 kts | 39° |
| 2026-05-04 09:52 | 8.11774 | -151.66699 | 36937 ft | 515 kts | 39° |
| 2026-05-04 09:53 | 8.17179 | -151.62042 | 36935 ft | 514 kts | 39° |
| 2026-05-04 09:53 | 8.22612 | -151.57359 | 36932 ft | 514 kts | 39° |
| 2026-05-04 09:54 | 8.28056 | -151.52666 | 36934 ft | 514 kts | 39° |
| 2026-05-04 09:54 | 8.33497 | -151.47974 | 36937 ft | 514 kts | 39° |
| 2026-05-04 09:55 | 8.38820 | -151.43228 | 36933 ft | 514 kts | 42° |
| 2026-05-04 09:55 | 8.44025 | -151.38282 | 36935 ft | 514 kts | 42° |
| 2026-05-04 09:56 | 8.49253 | -151.33356 | 36936 ft | 514 kts | 42° |
| 2026-05-04 09:56 | 8.54497 | -151.28448 | 36933 ft | 514 kts | 42° |
| 2026-05-04 09:57 | 8.59752 | -151.23532 | 36937 ft | 515 kts | 42° |
| 2026-05-04 09:57 | 8.64968 | -151.18650 | 36929 ft | 515 kts | 42° |
| 2026-05-04 09:58 | 8.70230 | -151.13722 | 36927 ft | 516 kts | 42° |
| 2026-05-04 09:58 | 8.75506 | -151.08779 | 36934 ft | 517 kts | 42° |
| 2026-05-04 10:00 | 8.96590 | -150.89008 | 36938 ft | 518 kts | 42° |
| 2026-05-04 10:04 | 9.33424 | -150.54386 | 36932 ft | 516 kts | 42° |
| 2026-05-04 10:04 | 9.38674 | -150.49443 | 36931 ft | 516 kts | 43° |
| 2026-05-04 10:05 | 9.43929 | -150.44493 | 36941 ft | 515 kts | 43° |
| 2026-05-04 10:05 | 9.49176 | -150.39549 | 36944 ft | 515 kts | 43° |
| 2026-05-04 10:06 | 9.54417 | -150.34608 | 36938 ft | 515 kts | 43° |
| 2026-05-04 10:06 | 9.59625 | -150.29695 | 36931 ft | 515 kts | 43° |